createdAt,value
2022-09-07T00:00:09.874Z,17.36
2022-09-07T00:01:09.956Z,17.33
2022-09-07T00:02:09.853Z,17.33
2022-09-07T00:03:09.977Z,17.32
2022-09-07T00:04:09.890Z,17.30
2022-09-07T00:05:09.832Z,17.29
2022-09-07T00:06:09.812Z,17.30
2022-09-07T00:07:09.811Z,17.26
2022-09-07T00:08:09.784Z,17.28
2022-09-07T00:09:09.780Z,17.25
2022-09-07T00:10:09.784Z,17.22
2022-09-07T00:11:09.776Z,17.17
2022-09-07T00:12:09.733Z,17.14
2022-09-07T00:13:09.730Z,17.14
2022-09-07T00:14:09.722Z,17.10
2022-09-07T00:15:09.709Z,17.11
2022-09-07T00:16:09.734Z,17.08
2022-09-07T00:17:09.679Z,17.10
2022-09-07T00:18:09.663Z,17.08
2022-09-07T00:19:09.676Z,17.10
2022-09-07T00:20:09.641Z,17.06
2022-09-07T00:21:09.641Z,17.06
2022-09-07T00:22:09.611Z,17.04
2022-09-07T00:23:09.609Z,17.04
2022-09-07T00:24:09.605Z,17.00
2022-09-07T00:25:09.583Z,16.96
2022-09-07T00:26:09.571Z,16.93
2022-09-07T00:27:09.561Z,16.92
2022-09-07T00:28:09.560Z,16.90
2022-09-07T00:29:09.540Z,16.89
2022-09-07T00:30:09.521Z,16.88
2022-09-07T00:31:09.612Z,16.88
2022-09-07T00:32:09.501Z,16.86
2022-09-07T00:33:09.491Z,16.86
2022-09-07T00:34:09.491Z,16.83
2022-09-07T00:35:09.471Z,16.83
2022-09-07T00:36:09.461Z,16.80
2022-09-07T00:37:09.447Z,16.80
2022-09-07T00:38:09.432Z,16.78
2022-09-07T00:39:09.430Z,16.75
2022-09-07T00:40:09.514Z,16.74
2022-09-07T00:41:09.408Z,16.74
2022-09-07T00:42:09.387Z,16.74
2022-09-07T00:43:09.378Z,16.71
2022-09-07T00:44:09.370Z,16.71
2022-09-07T00:45:09.351Z,16.73
2022-09-07T00:46:09.368Z,16.73
2022-09-07T00:47:09.359Z,16.74
2022-09-07T00:48:09.343Z,16.73
2022-09-07T00:49:09.334Z,16.71
2022-09-07T00:50:09.299Z,16.68
2022-09-07T00:51:09.278Z,16.67
2022-09-07T00:52:09.268Z,16.68
2022-09-07T00:53:09.268Z,16.67
2022-09-07T00:54:09.270Z,16.63
2022-09-07T00:55:09.264Z,16.60
2022-09-07T00:56:09.218Z,16.59
2022-09-07T00:57:09.217Z,16.56
2022-09-07T00:58:09.208Z,16.56
2022-09-07T00:59:09.187Z,16.53
2022-09-07T01:00:09.168Z,16.52
2022-09-07T01:01:09.178Z,16.49
2022-09-07T01:02:09.278Z,16.48
2022-09-07T01:03:09.208Z,16.44
2022-09-07T01:04:09.128Z,16.45
2022-09-07T01:05:09.695Z,16.44
2022-09-07T01:06:09.117Z,16.42
2022-09-07T01:07:09.099Z,16.41
2022-09-07T01:08:09.097Z,16.42
2022-09-07T01:09:09.085Z,16.42
2022-09-07T01:10:09.056Z,16.45
2022-09-07T01:11:09.047Z,16.42
2022-09-07T01:12:09.037Z,16.44
2022-09-07T01:13:09.026Z,16.41
2022-09-07T01:14:09.075Z,16.41
2022-09-07T01:15:08.996Z,16.40
2022-09-07T01:16:09.049Z,16.40
2022-09-07T01:17:08.979Z,16.37
2022-09-07T01:18:08.975Z,16.37
2022-09-07T01:19:08.966Z,16.37
2022-09-07T01:20:08.935Z,16.37
2022-09-07T01:21:08.937Z,16.37
2022-09-07T01:22:08.916Z,16.35
2022-09-07T01:23:08.907Z,16.35
2022-09-07T01:24:08.941Z,16.35
2022-09-07T01:25:08.894Z,16.35
2022-09-07T01:26:08.874Z,16.34
2022-09-07T01:27:08.864Z,16.35
2022-09-07T01:28:08.854Z,16.37
2022-09-07T01:29:08.846Z,16.37
2022-09-07T01:30:08.837Z,16.38
2022-09-07T01:31:08.848Z,16.38
2022-09-07T01:32:08.806Z,16.38
2022-09-07T01:33:08.794Z,16.37
2022-09-07T01:34:08.775Z,16.40
2022-09-07T01:35:08.774Z,16.37
2022-09-07T01:36:08.775Z,16.33
2022-09-07T01:37:08.744Z,16.27
2022-09-07T01:38:08.741Z,16.25
2022-09-07T01:39:08.724Z,16.23
2022-09-07T01:40:08.768Z,16.22
2022-09-07T01:41:08.695Z,16.18
2022-09-07T01:42:08.684Z,16.20
2022-09-07T01:43:08.675Z,16.25
2022-09-07T01:44:08.663Z,16.22
2022-09-07T01:45:08.663Z,16.23
2022-09-07T01:46:08.691Z,16.23
2022-09-07T01:47:08.641Z,16.23
2022-09-07T01:48:09.556Z,16.26
2022-09-07T01:49:08.614Z,16.26
2022-09-07T01:50:08.603Z,16.26
2022-09-07T01:51:08.583Z,16.26
2022-09-07T01:52:08.570Z,16.26
2022-09-07T01:53:08.580Z,16.27
2022-09-07T01:54:08.551Z,16.26
2022-09-07T01:55:08.540Z,16.25
2022-09-07T01:56:08.532Z,16.26
2022-09-07T01:57:08.513Z,16.26
2022-09-07T01:58:08.503Z,16.26
2022-09-07T01:59:08.493Z,16.25
2022-09-07T02:00:08.482Z,16.27
2022-09-07T02:01:08.482Z,16.26
2022-09-07T02:02:08.509Z,16.26
2022-09-07T02:03:08.550Z,16.30
2022-09-07T02:04:08.432Z,16.30
2022-09-07T02:05:08.422Z,16.27
2022-09-07T02:06:08.420Z,16.30
2022-09-07T02:07:08.400Z,16.27
2022-09-07T02:08:08.381Z,16.33
2022-09-07T02:09:08.371Z,16.31
2022-09-07T02:10:08.362Z,16.31
2022-09-07T02:11:08.361Z,16.30
2022-09-07T02:12:08.338Z,16.30
2022-09-07T02:13:08.329Z,16.27
2022-09-07T02:14:08.311Z,16.27
2022-09-07T02:15:08.300Z,16.25
2022-09-07T02:16:08.346Z,16.23
2022-09-07T02:17:08.282Z,16.25
2022-09-07T02:18:08.270Z,16.23
2022-09-07T02:19:08.260Z,16.23
2022-09-07T02:20:08.250Z,16.26
2022-09-07T02:21:08.241Z,16.25
2022-09-07T02:22:08.219Z,16.26
2022-09-07T02:23:08.211Z,16.26
2022-09-07T02:24:08.201Z,16.25
2022-09-07T02:25:08.189Z,16.23
2022-09-07T02:26:08.181Z,16.23
2022-09-07T02:27:08.180Z,16.25
2022-09-07T02:28:08.152Z,16.23
2022-09-07T02:29:08.139Z,16.25
2022-09-07T02:30:08.129Z,16.23
2022-09-07T02:31:08.239Z,16.27
2022-09-07T02:32:08.118Z,16.26
2022-09-07T02:33:08.111Z,16.27
2022-09-07T02:34:08.087Z,16.27
2022-09-07T02:35:08.069Z,16.27
2022-09-07T02:36:08.066Z,16.26
2022-09-07T02:37:08.055Z,16.27
2022-09-07T02:38:08.040Z,16.27
2022-09-07T02:39:08.026Z,16.27
2022-09-07T02:40:08.075Z,16.27
2022-09-07T02:41:07.997Z,16.27
2022-09-07T02:42:08.006Z,16.26
2022-09-07T02:43:07.977Z,16.30
2022-09-07T02:44:07.970Z,16.33
2022-09-07T02:45:07.949Z,16.31
2022-09-07T02:46:07.987Z,16.34
2022-09-07T02:47:07.927Z,16.35
2022-09-07T02:48:07.938Z,16.38
2022-09-07T02:49:07.909Z,16.38
2022-09-07T02:50:07.905Z,16.38
2022-09-07T02:51:07.877Z,16.42
2022-09-07T02:52:07.877Z,16.45
2022-09-07T02:53:07.888Z,16.44
2022-09-07T02:54:07.856Z,16.45
2022-09-07T02:55:07.837Z,16.45
2022-09-07T02:56:07.830Z,16.49
2022-09-07T02:57:07.816Z,16.50
2022-09-07T02:58:07.803Z,16.50
2022-09-07T02:59:07.800Z,16.50
2022-09-07T03:00:07.780Z,16.52
2022-09-07T03:01:07.851Z,16.53
2022-09-07T03:02:07.803Z,16.55
2022-09-07T03:03:07.748Z,16.55
2022-09-07T03:04:07.746Z,16.56
2022-09-07T03:05:07.715Z,16.53
2022-09-07T03:06:07.712Z,16.55
2022-09-07T03:07:07.695Z,16.58
2022-09-07T03:08:07.685Z,16.56
2022-09-07T03:09:07.684Z,16.56
2022-09-07T03:10:07.665Z,16.56
2022-09-07T03:11:07.645Z,16.59
2022-09-07T03:12:07.643Z,16.59
2022-09-07T03:13:07.624Z,16.59
2022-09-07T03:14:07.644Z,16.59
2022-09-07T03:15:07.604Z,16.60
2022-09-07T03:16:07.678Z,16.62
2022-09-07T03:17:07.584Z,16.63
2022-09-07T03:18:07.571Z,16.63
2022-09-07T03:19:07.554Z,16.62
2022-09-07T03:20:07.554Z,16.63
2022-09-07T03:21:07.540Z,16.63
2022-09-07T03:22:07.523Z,16.63
2022-09-07T03:23:07.503Z,16.67
2022-09-07T03:24:07.503Z,16.65
2022-09-07T03:25:07.493Z,16.68
2022-09-07T03:26:07.513Z,16.70
2022-09-07T03:27:07.473Z,16.70
2022-09-07T03:28:07.452Z,16.67
2022-09-07T03:29:07.442Z,16.70
2022-09-07T03:30:07.442Z,16.70
2022-09-07T03:31:07.524Z,16.71
2022-09-07T03:32:07.423Z,16.71
2022-09-07T03:33:07.392Z,16.74
2022-09-07T03:34:07.387Z,16.74
2022-09-07T03:35:07.373Z,16.74
2022-09-07T03:36:07.362Z,16.75
2022-09-07T03:37:07.348Z,16.75
2022-09-07T03:38:07.381Z,16.77
2022-09-07T03:39:07.383Z,16.75
2022-09-07T03:40:07.391Z,16.78
2022-09-07T03:41:07.304Z,16.77
2022-09-07T03:42:07.292Z,16.78
2022-09-07T03:43:07.293Z,16.77
2022-09-07T03:44:07.302Z,16.78
2022-09-07T03:45:07.250Z,16.80
2022-09-07T03:46:07.279Z,16.77
2022-09-07T03:47:07.231Z,16.80
2022-09-07T03:48:07.230Z,16.77
2022-09-07T03:49:07.209Z,16.78
2022-09-07T03:50:07.201Z,16.77
2022-09-07T03:51:07.180Z,16.77
2022-09-07T03:52:07.181Z,16.78
2022-09-07T03:53:07.170Z,16.78
2022-09-07T03:54:07.160Z,16.78
2022-09-07T03:55:07.131Z,16.75
2022-09-07T03:56:07.130Z,16.78
2022-09-07T03:57:07.118Z,16.77
2022-09-07T03:58:07.100Z,16.78
2022-09-07T03:59:07.113Z,16.77
2022-09-07T04:00:07.080Z,16.78
2022-09-07T04:01:07.124Z,16.78
2022-09-07T04:02:07.100Z,16.78
2022-09-07T04:03:07.041Z,16.78
2022-09-07T04:04:07.051Z,16.80
2022-09-07T04:05:07.049Z,16.78
2022-09-07T04:06:07.017Z,16.77
2022-09-07T04:07:06.999Z,16.80
2022-09-07T04:08:06.989Z,16.80
2022-09-07T04:09:06.969Z,16.77
2022-09-07T04:10:06.969Z,16.78
2022-09-07T04:11:06.960Z,16.80
2022-09-07T04:12:06.979Z,16.78
2022-09-07T04:13:06.928Z,16.77
2022-09-07T04:14:06.927Z,16.75
2022-09-07T04:15:06.908Z,16.77
2022-09-07T04:16:06.908Z,16.75
2022-09-07T04:17:06.953Z,16.74
2022-09-07T04:18:06.898Z,16.74
2022-09-07T04:19:06.872Z,16.75
2022-09-07T04:20:06.848Z,16.74
2022-09-07T04:21:06.848Z,16.74
2022-09-07T04:22:06.826Z,16.74
2022-09-07T04:23:06.848Z,16.74
2022-09-07T04:24:06.809Z,16.74
2022-09-07T04:25:06.789Z,16.73
2022-09-07T04:26:06.778Z,16.74
2022-09-07T04:27:06.775Z,16.74
2022-09-07T04:28:06.758Z,16.74
2022-09-07T04:29:06.747Z,16.73
2022-09-07T04:30:06.739Z,16.73
2022-09-07T04:31:06.838Z,16.74
2022-09-07T04:32:06.719Z,16.73
2022-09-07T04:33:06.797Z,16.75
2022-09-07T04:34:06.688Z,16.75
2022-09-07T04:35:06.675Z,16.75
2022-09-07T04:36:06.666Z,16.75
2022-09-07T04:37:06.718Z,16.75
2022-09-07T04:38:06.636Z,16.75
2022-09-07T04:39:06.634Z,16.75
2022-09-07T04:40:06.649Z,16.75
2022-09-07T04:41:06.608Z,16.77
2022-09-07T04:42:06.603Z,16.75
2022-09-07T04:43:06.577Z,16.75
2022-09-07T04:44:06.565Z,16.74
2022-09-07T04:45:06.556Z,16.74
2022-09-07T04:46:06.595Z,16.73
2022-09-07T04:47:06.546Z,16.70
2022-09-07T04:48:06.522Z,16.70
2022-09-07T04:49:06.514Z,16.70
2022-09-07T04:50:06.496Z,16.70
2022-09-07T04:51:06.496Z,16.70
2022-09-07T04:52:06.477Z,16.65
2022-09-07T04:53:06.474Z,16.65
2022-09-07T04:54:06.449Z,16.63
2022-09-07T04:55:06.455Z,16.63
2022-09-07T04:56:06.428Z,16.63
2022-09-07T04:57:06.428Z,16.60
2022-09-07T04:58:06.417Z,16.62
2022-09-07T04:59:06.394Z,16.59
2022-09-07T05:00:06.381Z,16.59
2022-09-07T05:01:06.467Z,16.58
2022-09-07T05:02:06.390Z,16.58
2022-09-07T05:03:06.363Z,16.58
2022-09-07T05:04:06.346Z,16.56
2022-09-07T05:05:06.353Z,16.55
2022-09-07T05:06:06.313Z,16.53
2022-09-07T05:07:06.303Z,16.52
2022-09-07T05:08:06.292Z,16.52
2022-09-07T05:09:06.323Z,16.50
2022-09-07T05:10:06.263Z,16.50
2022-09-07T05:11:06.254Z,16.52
2022-09-07T05:12:06.241Z,16.49
2022-09-07T05:13:06.232Z,16.49
2022-09-07T05:14:06.274Z,16.50
2022-09-07T05:15:06.212Z,16.50
2022-09-07T05:16:06.219Z,16.50
2022-09-07T05:17:06.184Z,16.50
2022-09-07T05:18:06.173Z,16.52
2022-09-07T05:19:06.173Z,16.53
2022-09-07T05:20:06.153Z,16.49
2022-09-07T05:21:06.140Z,16.56
2022-09-07T05:22:06.133Z,16.56
2022-09-07T05:23:06.120Z,16.58
2022-09-07T05:24:06.121Z,16.58
2022-09-07T05:25:06.092Z,16.59
2022-09-07T05:26:06.081Z,16.62
2022-09-07T05:27:06.064Z,16.62
2022-09-07T05:28:06.062Z,16.63
2022-09-07T05:30:07.437Z,16.63
2022-09-07T05:31:22.221Z,16.63
2022-09-07T05:32:07.011Z,16.65
2022-09-07T05:33:06.000Z,16.63
2022-09-07T05:35:06.982Z,16.63
2022-09-07T05:36:05.971Z,16.63
2022-09-07T05:37:05.952Z,16.63
2022-09-07T05:38:05.941Z,16.65
2022-09-07T05:39:05.941Z,16.65
2022-09-07T05:40:06.028Z,16.63
2022-09-07T05:41:05.900Z,16.65
2022-09-07T05:42:05.894Z,16.67
2022-09-07T05:43:05.880Z,16.67
2022-09-07T05:45:06.888Z,16.70
2022-09-07T05:46:05.932Z,16.71
2022-09-07T05:47:05.829Z,16.71
2022-09-07T05:48:05.828Z,16.71
2022-09-07T05:49:05.810Z,16.74
2022-09-07T05:50:05.803Z,16.75
2022-09-07T05:51:05.809Z,16.77
2022-09-07T05:52:05.784Z,16.77
2022-09-07T05:53:05.768Z,16.80
2022-09-07T05:54:05.761Z,16.81
2022-09-07T05:55:28.266Z,16.85
2022-09-07T05:56:07.224Z,16.85
2022-09-07T05:57:05.720Z,16.86
2022-09-07T05:58:05.709Z,16.88
2022-09-07T05:59:05.707Z,16.90
2022-09-07T06:00:05.939Z,16.92
2022-09-07T06:01:05.669Z,16.96
2022-09-07T06:02:05.778Z,16.98
2022-09-07T06:03:05.775Z,16.99
2022-09-07T06:04:05.641Z,17.03
2022-09-07T06:05:05.638Z,17.04
2022-09-07T06:06:05.608Z,17.08
2022-09-07T06:07:21.050Z,17.10
2022-09-07T06:08:06.597Z,17.13
2022-09-07T06:09:05.577Z,17.14
2022-09-07T06:11:06.557Z,17.22
2022-09-07T06:12:05.578Z,17.26
2022-09-07T06:13:05.528Z,17.28
2022-09-07T06:14:05.526Z,17.30
2022-09-07T06:15:05.520Z,17.32
2022-09-07T06:16:05.546Z,17.33
2022-09-07T06:17:05.486Z,17.38
2022-09-07T06:18:05.477Z,17.38
2022-09-07T06:19:05.456Z,17.43
2022-09-07T06:20:05.498Z,17.44
2022-09-07T06:21:05.452Z,17.47
2022-09-07T06:22:05.437Z,17.55
2022-09-07T06:23:05.414Z,17.59
2022-09-07T06:24:05.407Z,17.63
2022-09-07T06:25:05.436Z,17.64
2022-09-07T06:26:05.395Z,17.64
2022-09-07T06:27:05.365Z,17.66
2022-09-07T06:28:05.358Z,17.67
2022-09-07T06:29:05.346Z,17.69
2022-09-07T06:30:05.344Z,17.70
2022-09-07T06:31:05.343Z,17.74
2022-09-07T06:33:06.295Z,17.82
2022-09-07T06:34:05.294Z,17.87
2022-09-07T06:35:05.275Z,17.92
2022-09-07T06:36:05.284Z,17.95
2022-09-07T06:37:05.256Z,17.99
2022-09-07T06:38:05.255Z,18.00
2022-09-07T06:39:05.233Z,18.02
2022-09-07T06:40:05.282Z,18.03
2022-09-07T06:42:06.195Z,18.07
2022-09-07T06:43:05.204Z,18.09
2022-09-07T06:44:05.232Z,18.12
2022-09-07T06:45:05.165Z,18.17
2022-09-07T06:47:06.146Z,18.19
2022-09-07T06:48:05.153Z,18.22
2022-09-07T06:49:05.128Z,18.27
2022-09-07T06:50:05.108Z,18.28
2022-09-07T06:51:05.094Z,18.28
2022-09-07T06:52:05.094Z,18.29
2022-09-07T06:55:06.047Z,18.37
2022-09-07T06:56:05.063Z,18.43
2022-09-07T06:57:05.033Z,18.50
2022-09-07T06:58:05.023Z,18.57
2022-09-07T06:59:05.006Z,18.55
2022-09-07T07:00:05.243Z,18.58
2022-09-07T07:01:05.041Z,18.68
2022-09-07T07:02:04.986Z,18.74
2022-09-07T07:03:04.991Z,18.79
2022-09-07T07:04:04.951Z,18.84
2022-09-07T07:05:04.933Z,18.90
2022-09-07T07:06:04.922Z,18.97
2022-09-07T07:07:04.923Z,19.01
2022-09-07T07:08:04.915Z,19.05
2022-09-07T07:09:04.884Z,19.06
2022-09-07T07:10:04.893Z,19.13
2022-09-07T07:11:04.863Z,19.13
2022-09-07T07:12:04.864Z,19.15
2022-09-07T07:13:04.834Z,19.15
2022-09-07T07:14:04.834Z,19.14
2022-09-07T07:15:04.812Z,19.14
2022-09-07T07:16:04.849Z,19.17
2022-09-07T07:17:04.801Z,19.21
2022-09-07T07:18:19.766Z,19.24
2022-09-07T07:19:05.774Z,19.24
2022-09-07T07:20:04.751Z,19.28
2022-09-07T07:21:04.741Z,19.31
2022-09-07T07:22:18.637Z,19.35
2022-09-07T07:23:05.721Z,19.38
2022-09-07T07:24:08.036Z,19.42
2022-09-07T07:25:04.742Z,19.46
2022-09-07T07:26:04.705Z,19.47
2022-09-07T07:27:04.682Z,19.51
2022-09-07T07:29:05.652Z,19.57
2022-09-07T07:30:04.639Z,19.60
2022-09-07T07:31:08.811Z,19.61
2022-09-07T07:32:05.631Z,19.68
2022-09-07T07:33:04.681Z,19.69
2022-09-07T07:34:04.608Z,19.69
2022-09-07T07:35:04.581Z,19.70
2022-09-07T07:36:04.570Z,19.72
2022-09-07T07:37:04.580Z,19.75
2022-09-07T07:39:05.895Z,19.80
2022-09-07T07:40:23.466Z,19.83
2022-09-07T07:42:06.051Z,19.88
2022-09-07T07:43:05.705Z,19.94
2022-09-07T07:44:04.481Z,19.95
2022-09-07T07:46:06.272Z,19.95
2022-09-07T07:47:04.550Z,19.95
2022-09-07T07:48:04.434Z,19.98
2022-09-07T07:49:04.421Z,20.03
2022-09-07T07:51:09.851Z,20.09
2022-09-07T07:54:05.406Z,20.15
2022-09-07T07:55:42.869Z,20.15
2022-09-07T07:56:05.381Z,20.18
2022-09-07T07:57:04.386Z,20.21
2022-09-07T07:58:04.331Z,20.20
2022-09-07T07:59:04.302Z,20.21
2022-09-07T08:00:04.348Z,20.21
2022-09-07T08:01:04.310Z,20.24
2022-09-07T08:02:04.804Z,20.27
2022-09-07T08:03:04.271Z,20.25
2022-09-07T08:04:04.251Z,20.27
2022-09-07T08:05:04.229Z,20.28
2022-09-07T08:06:04.221Z,20.28
2022-09-07T08:07:09.486Z,20.31
2022-09-07T08:08:05.210Z,20.35
2022-09-07T08:09:04.188Z,20.39
2022-09-07T08:10:04.181Z,20.41
2022-09-07T08:11:04.169Z,20.43
2022-09-07T08:12:04.202Z,20.49
2022-09-07T08:13:04.149Z,20.53
2022-09-07T08:14:04.129Z,20.58
2022-09-07T08:15:04.126Z,20.62
2022-09-07T08:16:04.143Z,20.66
2022-09-07T08:17:04.092Z,20.72
2022-09-07T08:18:04.078Z,20.81
2022-09-07T08:19:04.117Z,20.86
2022-09-07T08:20:04.060Z,20.91
2022-09-07T08:21:04.051Z,20.99
2022-09-07T08:22:04.044Z,21.04
2022-09-07T08:23:04.029Z,21.14
2022-09-07T08:24:04.008Z,21.20
2022-09-07T08:25:04.008Z,21.26
2022-09-07T08:26:03.991Z,21.32
2022-09-07T08:27:03.978Z,21.41
2022-09-07T08:28:04.162Z,21.50
2022-09-07T08:29:03.957Z,21.56
2022-09-07T08:30:03.958Z,21.61
2022-09-07T08:31:03.989Z,21.67
2022-09-07T08:32:03.930Z,21.74
2022-09-07T08:33:03.908Z,21.85
2022-09-07T08:34:03.898Z,21.91
2022-09-07T08:35:03.889Z,21.98
2022-09-07T08:36:03.888Z,21.97
2022-09-07T08:37:03.857Z,22.01
2022-09-07T08:38:03.847Z,22.01
2022-09-07T08:39:03.837Z,22.02
2022-09-07T08:40:03.899Z,22.04
2022-09-07T08:41:03.818Z,22.09
2022-09-07T08:42:03.866Z,22.12
2022-09-07T08:43:03.794Z,22.09
2022-09-07T08:44:03.779Z,22.12
2022-09-07T08:45:03.826Z,22.13
2022-09-07T08:46:03.758Z,22.16
2022-09-07T08:47:03.793Z,22.17
2022-09-07T08:48:03.745Z,22.19
2022-09-07T08:49:03.727Z,22.20
2022-09-07T08:50:03.742Z,22.23
2022-09-07T08:51:03.698Z,22.23
2022-09-07T08:52:03.708Z,22.25
2022-09-07T08:53:03.676Z,22.23
2022-09-07T08:54:03.667Z,22.25
2022-09-07T08:55:03.657Z,22.29
2022-09-07T08:56:03.647Z,22.31
2022-09-07T08:58:04.627Z,22.35
2022-09-07T08:59:03.606Z,22.34
2022-09-07T09:00:03.598Z,22.35
2022-09-07T09:04:21.338Z,22.31
2022-09-07T09:05:20.136Z,22.28
2022-09-07T09:06:04.611Z,22.27
2022-09-07T09:07:03.615Z,22.23
2022-09-07T09:08:03.505Z,22.22
2022-09-07T09:09:03.506Z,22.20
2022-09-07T09:10:03.477Z,22.19
2022-09-07T09:11:03.469Z,22.17
2022-09-07T09:12:03.466Z,22.16
2022-09-07T09:13:03.466Z,22.13
2022-09-07T09:14:03.456Z,22.12
2022-09-07T09:15:03.417Z,22.12
2022-09-07T09:16:03.480Z,22.10
2022-09-07T09:17:03.397Z,22.07
2022-09-07T09:18:03.385Z,22.07
2022-09-07T09:19:03.386Z,22.06
2022-09-07T09:20:03.368Z,22.04
2022-09-07T09:21:03.346Z,22.02
2022-09-07T09:22:03.361Z,22.02
2022-09-07T09:23:03.325Z,21.99
2022-09-07T09:24:03.326Z,21.99
2022-09-07T09:25:03.306Z,22.01
2022-09-07T09:26:03.295Z,21.99
2022-09-07T09:27:03.286Z,21.99
2022-09-07T09:28:03.276Z,21.99
2022-09-07T09:29:03.266Z,22.02
2022-09-07T09:30:03.245Z,22.02
2022-09-07T09:31:03.325Z,22.12
2022-09-07T09:32:03.226Z,22.17
2022-09-07T09:33:03.215Z,22.22
2022-09-07T09:34:03.217Z,22.27
2022-09-07T09:35:03.193Z,22.31
2022-09-07T09:36:03.184Z,22.35
2022-09-07T09:37:03.168Z,22.39
2022-09-07T09:38:03.159Z,22.50
2022-09-07T09:39:03.145Z,22.57
2022-09-07T09:40:03.377Z,22.65
2022-09-07T09:41:03.116Z,22.71
2022-09-07T09:42:03.108Z,22.75
2022-09-07T09:43:03.094Z,22.84
2022-09-07T09:44:03.094Z,22.89
2022-09-07T09:45:03.084Z,22.97
2022-09-07T09:46:18.638Z,23.01
2022-09-07T09:48:04.076Z,23.08
2022-09-07T09:49:03.074Z,23.09
2022-09-07T09:50:03.027Z,23.12
2022-09-07T09:53:03.975Z,23.29
2022-09-07T09:54:02.964Z,23.45
2022-09-07T09:55:30.106Z,23.53
2022-09-07T09:56:03.954Z,23.57
2022-09-07T09:57:02.945Z,23.61
2022-09-07T09:59:05.444Z,23.76
2022-09-07T10:00:08.488Z,23.87
2022-09-07T10:04:07.439Z,24.17
2022-09-07T10:05:03.859Z,24.13
2022-09-07T10:06:02.835Z,24.04
2022-09-07T10:07:02.840Z,23.97
2022-09-07T10:08:02.815Z,23.97
2022-09-07T10:09:02.807Z,24.10
2022-09-07T10:10:02.785Z,24.23
2022-09-07T10:11:02.796Z,24.26
2022-09-07T10:12:06.767Z,24.24
2022-09-07T10:13:02.774Z,24.27
2022-09-07T10:14:02.744Z,24.22
2022-09-07T10:15:02.754Z,24.22
2022-09-07T10:16:02.775Z,24.19
2022-09-07T10:17:02.740Z,24.17
2022-09-07T10:18:02.685Z,24.16
2022-09-07T10:19:02.692Z,24.16
2022-09-07T10:20:02.668Z,24.14
2022-09-07T10:21:02.654Z,24.12
2022-09-07T10:22:02.683Z,24.02
2022-09-07T10:23:02.674Z,24.00
2022-09-07T10:24:02.625Z,23.98
2022-09-07T10:25:02.615Z,24.00
2022-09-07T10:26:02.602Z,24.00
2022-09-07T10:27:02.633Z,24.00
2022-09-07T10:28:02.580Z,23.98
2022-09-07T10:29:10.175Z,23.89
2022-09-07T10:30:06.602Z,23.89
2022-09-07T10:31:02.585Z,23.87
2022-09-07T10:32:02.553Z,23.86
2022-09-07T10:33:02.515Z,23.89
2022-09-07T10:35:05.333Z,23.85
2022-09-07T10:36:02.492Z,23.86
2022-09-07T10:37:02.478Z,23.86
2022-09-07T10:38:02.491Z,23.87
2022-09-07T10:39:02.453Z,23.90
2022-09-07T10:40:02.490Z,23.95
2022-09-07T10:41:02.424Z,24.08
2022-09-07T10:42:02.434Z,24.12
2022-09-07T10:44:03.383Z,24.24
2022-09-07T10:45:02.373Z,24.29
2022-09-07T10:46:02.407Z,24.27
2022-09-07T10:47:02.561Z,24.27
2022-09-07T10:48:02.352Z,24.29
2022-09-07T10:49:02.333Z,24.29
2022-09-07T10:51:13.377Z,24.23
2022-09-07T10:52:03.296Z,24.20
2022-09-07T10:53:13.372Z,24.16
2022-09-07T10:55:03.267Z,24.14
2022-09-07T10:56:02.253Z,24.17
2022-09-07T10:57:02.245Z,24.10
2022-09-07T10:58:02.233Z,24.14
2022-09-07T10:59:03.553Z,24.12
2022-09-07T11:00:09.994Z,24.13
2022-09-07T11:01:03.194Z,24.23
2022-09-07T11:02:02.254Z,24.41
2022-09-07T11:04:03.211Z,24.53
2022-09-07T11:05:02.183Z,24.68
2022-09-07T11:06:02.135Z,24.80
2022-09-07T11:07:02.135Z,24.94
2022-09-07T11:08:02.163Z,25.06
2022-09-07T11:09:18.364Z,25.13
2022-09-07T11:10:03.102Z,25.16
2022-09-07T11:11:02.093Z,25.25
2022-09-07T11:12:03.057Z,25.37
2022-09-07T11:13:02.058Z,25.46
2022-09-07T11:14:12.933Z,25.52
2022-09-07T11:15:03.063Z,25.52
2022-09-07T11:16:02.103Z,25.56
2022-09-07T11:17:02.081Z,25.59
2022-09-07T11:18:01.993Z,25.59
2022-09-07T11:20:02.988Z,25.75
2022-09-07T11:21:01.972Z,25.87
2022-09-07T11:22:01.954Z,25.94
2022-09-07T11:23:01.943Z,26.06
2022-09-07T11:24:01.932Z,26.06
2022-09-07T11:26:02.903Z,26.24
2022-09-07T11:27:01.900Z,26.25
2022-09-07T11:28:01.882Z,26.24
2022-09-07T11:30:02.871Z,26.43
2022-09-07T11:31:01.911Z,26.47
2022-09-07T11:32:01.832Z,26.55
2022-09-07T11:33:01.822Z,26.57
2022-09-07T11:35:02.875Z,26.80
2022-09-07T11:36:01.794Z,26.86
2022-09-07T11:37:01.780Z,26.80
2022-09-07T11:38:01.763Z,26.77
2022-09-07T11:39:01.762Z,26.87
2022-09-07T11:40:01.810Z,26.89
2022-09-07T11:41:01.742Z,26.95
2022-09-07T11:42:42.238Z,26.94
2022-09-07T11:43:02.704Z,26.92
2022-09-07T11:44:01.692Z,26.91
2022-09-07T11:45:01.683Z,26.79
2022-09-07T11:46:01.736Z,26.73
2022-09-07T11:47:01.663Z,26.79
2022-09-07T11:48:01.652Z,26.80
2022-09-07T11:49:04.382Z,26.81
2022-09-07T11:50:01.622Z,26.87
2022-09-07T11:51:01.624Z,26.92
2022-09-07T11:52:05.045Z,26.96
2022-09-07T11:53:01.592Z,26.94
2022-09-07T11:54:01.633Z,26.96
2022-09-07T11:55:01.572Z,26.95
2022-09-07T11:56:01.614Z,26.96
2022-09-07T11:57:01.552Z,26.99
2022-09-07T11:58:01.582Z,26.99
2022-09-07T11:59:01.523Z,26.98
2022-09-07T12:00:01.511Z,26.96
2022-09-07T12:01:01.512Z,26.94
2022-09-07T12:02:01.492Z,26.92
2022-09-07T12:03:01.544Z,26.86
2022-09-07T12:04:01.604Z,26.69
2022-09-07T12:05:01.516Z,26.61
2022-09-07T12:06:01.465Z,26.54
2022-09-07T12:07:01.432Z,26.47
2022-09-07T12:08:01.422Z,26.46
2022-09-07T12:09:01.423Z,26.40
2022-09-07T12:10:01.394Z,26.40
2022-09-07T12:11:01.402Z,26.40
2022-09-07T12:12:01.414Z,26.42
2022-09-07T12:13:01.363Z,26.40
2022-09-07T12:14:01.342Z,26.39
2022-09-07T12:15:01.351Z,26.36
2022-09-07T12:16:01.367Z,26.32
2022-09-07T12:17:01.330Z,26.27
2022-09-07T12:18:01.304Z,26.25
2022-09-07T12:19:01.292Z,26.21
2022-09-07T12:20:01.282Z,26.17
2022-09-07T12:21:01.273Z,26.17
2022-09-07T12:22:01.282Z,26.06
2022-09-07T12:23:04.902Z,26.04
2022-09-07T12:24:01.232Z,26.01
2022-09-07T12:25:01.238Z,25.99
2022-09-07T12:26:01.213Z,26.01
2022-09-07T12:27:01.223Z,26.02
2022-09-07T12:28:01.184Z,26.01
2022-09-07T12:29:01.180Z,25.99
2022-09-07T12:30:01.163Z,26.01
2022-09-07T12:31:01.167Z,26.04
2022-09-07T12:32:53.475Z,26.05
2022-09-07T12:33:02.176Z,26.08
2022-09-07T12:34:01.113Z,26.08
2022-09-07T12:35:01.114Z,26.12
2022-09-07T12:36:01.127Z,26.17
2022-09-07T12:37:01.141Z,26.20
2022-09-07T12:38:01.073Z,26.21
2022-09-07T12:39:01.062Z,26.25
2022-09-07T12:40:01.087Z,26.22
2022-09-07T12:41:01.046Z,26.21
2022-09-07T12:43:09.688Z,26.15
2022-09-07T12:44:02.127Z,26.11
2022-09-07T12:45:00.991Z,26.11
2022-09-07T12:46:01.042Z,26.15
2022-09-07T12:47:00.972Z,26.12
2022-09-07T12:48:00.972Z,26.15
2022-09-07T12:49:00.952Z,26.15
2022-09-07T12:50:00.932Z,26.11
2022-09-07T12:51:00.922Z,26.02
2022-09-07T12:52:06.802Z,25.98
2022-09-07T12:53:01.911Z,25.91
2022-09-07T12:54:00.883Z,25.89
2022-09-07T12:55:26.035Z,25.89
2022-09-07T12:56:17.554Z,25.83
2022-09-07T12:58:01.856Z,25.79
2022-09-07T12:59:00.862Z,25.77
2022-09-07T13:00:00.857Z,25.74
2022-09-07T13:01:00.846Z,25.75
2022-09-07T13:02:00.905Z,25.79
2022-09-07T13:03:00.783Z,25.79
2022-09-07T13:04:00.964Z,25.80
2022-09-07T13:05:00.761Z,25.82
2022-09-07T13:06:00.752Z,25.84
2022-09-07T13:07:02.293Z,25.82
2022-09-07T13:08:08.248Z,25.80
2022-09-07T13:09:01.722Z,25.82
2022-09-07T13:10:00.752Z,25.82
2022-09-07T13:11:00.693Z,25.83
2022-09-07T13:12:00.693Z,25.89
2022-09-07T13:13:00.662Z,25.87
2022-09-07T13:14:03.857Z,25.87
2022-09-07T13:15:00.657Z,25.90
2022-09-07T13:16:00.699Z,25.91
2022-09-07T13:17:16.419Z,25.94
2022-09-07T13:18:01.621Z,25.97
2022-09-07T13:19:01.922Z,26.01
2022-09-07T13:20:01.319Z,26.01
2022-09-07T13:21:00.571Z,26.01
2022-09-07T13:22:00.573Z,25.99
2022-09-07T13:23:00.552Z,25.97
2022-09-07T13:24:44.025Z,25.94
2022-09-07T13:25:01.628Z,25.90
2022-09-07T13:26:00.538Z,25.87
2022-09-07T13:27:00.501Z,25.89
2022-09-07T13:28:00.502Z,25.86
2022-09-07T13:29:00.479Z,25.87
2022-09-07T13:30:00.523Z,25.84